sensor_id;sensor_type;location;lat;lon;timestamp;pressure;altitude;pressure_sealevel;temperature;humidity
73242;BME280;65659;49.234;-2.094;2023-07-13T00:01:40;100654.05;;;19.42;53.27
73242;BME280;65659;49.234;-2.094;2023-07-13T00:04:06;100658.34;;;19.51;53.15
73242;BME280;65659;49.234;-2.094;2023-07-13T00:06:31;100658.31;;;18.92;53.35
73242;BME280;65659;49.234;-2.094;2023-07-13T00:08:57;100653.25;;;19.03;53.64
73242;BME280;65659;49.234;-2.094;2023-07-13T00:11:23;100654.69;;;19.36;53.43
73242;BME280;65659;49.234;-2.094;2023-07-13T00:13:51;100653.78;;;19.10;53.46
73242;BME280;65659;49.234;-2.094;2023-07-13T00:16:14;100650.01;;;19.01;53.57
73242;BME280;65659;49.234;-2.094;2023-07-13T00:18:40;100652.94;;;19.00;53.59
73242;BME280;65659;49.234;-2.094;2023-07-13T00:21:06;100647.39;;;19.17;53.77
73242;BME280;65659;49.234;-2.094;2023-07-13T00:23:31;100650.02;;;19.00;53.67
73242;BME280;65659;49.234;-2.094;2023-07-13T00:25:57;100648.95;;;18.78;54.14
73242;BME280;65659;49.234;-2.094;2023-07-13T00:28:23;100647.37;;;19.00;53.65
73242;BME280;65659;49.234;-2.094;2023-07-13T00:30:48;100650.50;;;19.24;53.67
73242;BME280;65659;49.234;-2.094;2023-07-13T00:33:13;100649.88;;;18.91;53.78
73242;BME280;65659;49.234;-2.094;2023-07-13T00:35:39;100646.32;;;19.16;53.81
73242;BME280;65659;49.234;-2.094;2023-07-13T00:38:04;100650.38;;;19.03;53.53
73242;BME280;65659;49.234;-2.094;2023-07-13T00:40:30;100650.58;;;19.01;53.61
73242;BME280;65659;49.234;-2.094;2023-07-13T00:42:57;100652.50;;;18.97;53.51
73242;BME280;65659;49.234;-2.094;2023-07-13T00:47:47;100663.10;;;18.96;53.18
73242;BME280;65659;49.234;-2.094;2023-07-13T00:50:15;100659.96;;;19.22;53.24
73242;BME280;65659;49.234;-2.094;2023-07-13T00:52:43;100657.02;;;18.94;53.53
73242;BME280;65659;49.234;-2.094;2023-07-13T00:55:05;100657.89;;;19.26;53.54
73242;BME280;65659;49.234;-2.094;2023-07-13T00:57:30;100652.24;;;19.00;53.66
73242;BME280;65659;49.234;-2.094;2023-07-13T00:59:58;100655.32;;;19.02;54.12
73242;BME280;65659;49.234;-2.094;2023-07-13T01:02:21;100658.29;;;18.82;54.05
73242;BME280;65659;49.234;-2.094;2023-07-13T01:04:46;100651.87;;;18.77;54.10
73242;BME280;65659;49.234;-2.094;2023-07-13T01:07:13;100657.57;;;19.05;54.03
73242;BME280;65659;49.234;-2.094;2023-07-13T01:09:37;100651.56;;;18.83;53.89
73242;BME280;65659;49.234;-2.094;2023-07-13T01:12:04;100646.50;;;18.87;53.71
73242;BME280;65659;49.234;-2.094;2023-07-13T01:14:29;100645.48;;;18.81;53.78
73242;BME280;65659;49.234;-2.094;2023-07-13T01:16:55;100647.30;;;19.05;53.67
73242;BME280;65659;49.234;-2.094;2023-07-13T01:19:29;100641.29;;;18.78;53.63
73242;BME280;65659;49.234;-2.094;2023-07-13T01:21:50;100643.64;;;19.05;53.38
73242;BME280;65659;49.234;-2.094;2023-07-13T01:24:11;100643.68;;;19.08;53.26
73242;BME280;65659;49.234;-2.094;2023-07-13T01:26:37;100640.81;;;19.00;53.32
73242;BME280;65659;49.234;-2.094;2023-07-13T01:29:02;100640.07;;;19.02;53.21
73242;BME280;65659;49.234;-2.094;2023-07-13T01:31:28;100644.80;;;18.80;53.10
73242;BME280;65659;49.234;-2.094;2023-07-13T01:33:53;100649.19;;;19.00;53.16
73242;BME280;65659;49.234;-2.094;2023-07-13T01:36:19;100650.92;;;19.12;52.99
73242;BME280;65659;49.234;-2.094;2023-07-13T01:38:45;100657.03;;;18.71;53.32
73242;BME280;65659;49.234;-2.094;2023-07-13T01:41:10;100651.69;;;19.03;53.29
73242;BME280;65659;49.234;-2.094;2023-07-13T01:43:36;100651.25;;;18.98;53.48
73242;BME280;65659;49.234;-2.094;2023-07-13T01:46:02;100654.09;;;18.79;53.44
73242;BME280;65659;49.234;-2.094;2023-07-13T01:48:27;100655.63;;;18.88;53.35
73242;BME280;65659;49.234;-2.094;2023-07-13T01:50:52;100652.18;;;18.77;53.67
73242;BME280;65659;49.234;-2.094;2023-07-13T01:53:17;100657.44;;;19.07;53.59
73242;BME280;65659;49.234;-2.094;2023-07-13T01:55:43;100658.87;;;18.77;53.71
73242;BME280;65659;49.234;-2.094;2023-07-13T01:58:09;100658.45;;;18.92;53.97
73242;BME280;65659;49.234;-2.094;2023-07-13T02:00:34;100657.74;;;18.91;53.97
73242;BME280;65659;49.234;-2.094;2023-07-13T02:03:01;100657.53;;;18.79;53.83
73242;BME280;65659;49.234;-2.094;2023-07-13T02:05:26;100656.55;;;18.66;54.13
73242;BME280;65659;49.234;-2.094;2023-07-13T02:07:52;100658.60;;;18.80;53.88
73242;BME280;65659;49.234;-2.094;2023-07-13T02:10:17;100663.54;;;18.85;54.22
73242;BME280;65659;49.234;-2.094;2023-07-13T02:12:43;100655.58;;;18.98;54.03
73242;BME280;65659;49.234;-2.094;2023-07-13T02:15:09;100657.85;;;18.93;54.10
73242;BME280;65659;49.234;-2.094;2023-07-13T02:17:34;100655.49;;;18.90;54.19
73242;BME280;65659;49.234;-2.094;2023-07-13T02:20:00;100657.01;;;18.89;54.21
73242;BME280;65659;49.234;-2.094;2023-07-13T02:22:25;100656.64;;;18.60;54.29
73242;BME280;65659;49.234;-2.094;2023-07-13T02:24:51;100657.49;;;18.87;54.33
73242;BME280;65659;49.234;-2.094;2023-07-13T02:27:17;100652.13;;;18.92;54.24
73242;BME280;65659;49.234;-2.094;2023-07-13T02:29:43;100648.87;;;18.94;54.26
73242;BME280;65659;49.234;-2.094;2023-07-13T02:32:09;100648.44;;;18.64;54.41
73242;BME280;65659;49.234;-2.094;2023-07-13T02:34:34;100646.33;;;18.71;54.30
73242;BME280;65659;49.234;-2.094;2023-07-13T02:37:00;100647.17;;;18.77;54.28
73242;BME280;65659;49.234;-2.094;2023-07-13T02:39:26;100642.88;;;19.03;54.32
73242;BME280;65659;49.234;-2.094;2023-07-13T02:41:52;100647.10;;;19.03;54.35
73242;BME280;65659;49.234;-2.094;2023-07-13T02:44:17;100647.10;;;18.83;54.27
73242;BME280;65659;49.234;-2.094;2023-07-13T02:46:43;100645.97;;;18.71;54.52
73242;BME280;65659;49.234;-2.094;2023-07-13T02:49:09;100644.28;;;19.07;54.31
73242;BME280;65659;49.234;-2.094;2023-07-13T02:51:35;100648.51;;;18.91;54.16
73242;BME280;65659;49.234;-2.094;2023-07-13T02:54:01;100647.52;;;19.04;54.27
73242;BME280;65659;49.234;-2.094;2023-07-13T02:56:28;100641.35;;;18.68;54.37
73242;BME280;65659;49.234;-2.094;2023-07-13T02:58:52;100644.93;;;18.96;54.29
73242;BME280;65659;49.234;-2.094;2023-07-13T03:01:17;100643.34;;;19.02;54.20
73242;BME280;65659;49.234;-2.094;2023-07-13T03:03:43;100642.46;;;18.69;54.33
73242;BME280;65659;49.234;-2.094;2023-07-13T03:06:09;100643.64;;;18.74;54.20
73242;BME280;65659;49.234;-2.094;2023-07-13T03:08:35;100640.14;;;18.88;54.13
73242;BME280;65659;49.234;-2.094;2023-07-13T03:11:00;100641.48;;;18.82;54.04
73242;BME280;65659;49.234;-2.094;2023-07-13T03:13:25;100638.97;;;18.86;53.90
73242;BME280;65659;49.234;-2.094;2023-07-13T03:15:51;100644.23;;;18.81;53.97
73242;BME280;65659;49.234;-2.094;2023-07-13T03:18:17;100646.47;;;18.80;54.01
73242;BME280;65659;49.234;-2.094;2023-07-13T03:20:43;100645.10;;;18.73;54.19
73242;BME280;65659;49.234;-2.094;2023-07-13T03:23:08;100645.38;;;18.89;54.02
73242;BME280;65659;49.234;-2.094;2023-07-13T03:25:34;100644.23;;;18.87;54.16
73242;BME280;65659;49.234;-2.094;2023-07-13T03:28:00;100644.78;;;18.60;54.36
73242;BME280;65659;49.234;-2.094;2023-07-13T03:30:26;100649.09;;;18.65;54.32
73242;BME280;65659;49.234;-2.094;2023-07-13T03:32:51;100651.49;;;19.00;54.21
73242;BME280;65659;49.234;-2.094;2023-07-13T03:35:17;100649.26;;;18.64;54.39
73242;BME280;65659;49.234;-2.094;2023-07-13T03:37:43;100645.22;;;18.84;54.53
73242;BME280;65659;49.234;-2.094;2023-07-13T03:40:09;100648.27;;;18.64;54.46
73242;BME280;65659;49.234;-2.094;2023-07-13T03:42:34;100649.36;;;18.71;54.31
73242;BME280;65659;49.234;-2.094;2023-07-13T03:45:00;100652.15;;;19.00;54.26
73242;BME280;65659;49.234;-2.094;2023-07-13T03:47:26;100650.13;;;18.86;54.51
73242;BME280;65659;49.234;-2.094;2023-07-13T03:49:52;100657.51;;;18.65;54.50
73242;BME280;65659;49.234;-2.094;2023-07-13T03:52:17;100656.94;;;18.69;54.45
73242;BME280;65659;49.234;-2.094;2023-07-13T03:54:43;100656.58;;;18.95;54.49
73242;BME280;65659;49.234;-2.094;2023-07-13T03:57:09;100659.35;;;18.92;54.60
73242;BME280;65659;49.234;-2.094;2023-07-13T03:59:34;100664.09;;;18.98;54.49
73242;BME280;65659;49.234;-2.094;2023-07-13T04:02:01;100660.83;;;19.29;54.39
73242;BME280;65659;49.234;-2.094;2023-07-13T04:04:25;100662.33;;;19.02;54.46
73242;BME280;65659;49.234;-2.094;2023-07-13T04:06:51;100660.84;;;18.96;54.60
73242;BME280;65659;49.234;-2.094;2023-07-13T04:09:17;100663.32;;;18.84;54.90
73242;BME280;65659;49.234;-2.094;2023-07-13T04:11:42;100672.80;;;18.38;54.93
73242;BME280;65659;49.234;-2.094;2023-07-13T04:14:08;100678.30;;;18.70;54.82
73242;BME280;65659;49.234;-2.094;2023-07-13T04:16:34;100685.35;;;18.78;54.72
73242;BME280;65659;49.234;-2.094;2023-07-13T04:19:00;100679.04;;;18.91;54.85
73242;BME280;65659;49.234;-2.094;2023-07-13T04:21:26;100679.63;;;19.04;54.66
73242;BME280;65659;49.234;-2.094;2023-07-13T04:23:51;100679.01;;;19.01;54.77
73242;BME280;65659;49.234;-2.094;2023-07-13T04:26:17;100682.13;;;19.03;54.86
73242;BME280;65659;49.234;-2.094;2023-07-13T04:28:42;100683.33;;;18.81;54.87
73242;BME280;65659;49.234;-2.094;2023-07-13T04:31:08;100679.65;;;19.16;54.65
73242;BME280;65659;49.234;-2.094;2023-07-13T04:33:33;100679.68;;;18.88;54.78
73242;BME280;65659;49.234;-2.094;2023-07-13T04:35:59;100683.58;;;18.79;54.82
73242;BME280;65659;49.234;-2.094;2023-07-13T04:38:26;100682.49;;;18.56;54.77
73242;BME280;65659;49.234;-2.094;2023-07-13T04:40:51;100679.61;;;18.96;54.91
73242;BME280;65659;49.234;-2.094;2023-07-13T04:43:16;100681.89;;;19.01;54.80
73242;BME280;65659;49.234;-2.094;2023-07-13T04:45:41;100682.33;;;19.13;54.60
73242;BME280;65659;49.234;-2.094;2023-07-13T04:48:07;100683.59;;;19.05;54.75
73242;BME280;65659;49.234;-2.094;2023-07-13T04:50:33;100685.41;;;18.84;54.69
73242;BME280;65659;49.234;-2.094;2023-07-13T04:52:58;100686.93;;;18.63;54.60
73242;BME280;65659;49.234;-2.094;2023-07-13T04:55:24;100690.92;;;18.90;54.50
73242;BME280;65659;49.234;-2.094;2023-07-13T04:57:49;100692.88;;;19.03;54.73
73242;BME280;65659;49.234;-2.094;2023-07-13T05:00:15;100690.41;;;18.90;54.46
73242;BME280;65659;49.234;-2.094;2023-07-13T05:02:44;100685.78;;;18.86;54.58
73242;BME280;65659;49.234;-2.094;2023-07-13T05:05:07;100682.77;;;19.23;54.35
73242;BME280;65659;49.234;-2.094;2023-07-13T05:07:32;100687.36;;;19.01;54.35
73242;BME280;65659;49.234;-2.094;2023-07-13T05:09:57;100690.84;;;18.90;54.57
73242;BME280;65659;49.234;-2.094;2023-07-13T05:12:24;100690.86;;;19.02;54.38
73242;BME280;65659;49.234;-2.094;2023-07-13T05:14:48;100697.45;;;19.23;54.06
73242;BME280;65659;49.234;-2.094;2023-07-13T05:17:14;100695.98;;;19.24;54.11
73242;BME280;65659;49.234;-2.094;2023-07-13T05:19:40;100700.08;;;19.21;54.16
73242;BME280;65659;49.234;-2.094;2023-07-13T05:22:05;100706.15;;;19.49;54.05
73242;BME280;65659;49.234;-2.094;2023-07-13T05:24:31;100706.33;;;19.46;54.12
73242;BME280;65659;49.234;-2.094;2023-07-13T05:26:56;100708.57;;;19.08;54.00
73242;BME280;65659;49.234;-2.094;2023-07-13T05:29:22;100706.97;;;19.07;53.94
73242;BME280;65659;49.234;-2.094;2023-07-13T05:31:48;100711.39;;;19.11;53.87
73242;BME280;65659;49.234;-2.094;2023-07-13T05:34:13;100715.35;;;19.34;53.82
73242;BME280;65659;49.234;-2.094;2023-07-13T05:36:40;100720.46;;;19.57;53.82
73242;BME280;65659;49.234;-2.094;2023-07-13T05:39:05;100720.96;;;19.36;53.81
73242;BME280;65659;49.234;-2.094;2023-07-13T05:41:31;100727.84;;;19.12;53.74
73242;BME280;65659;49.234;-2.094;2023-07-13T05:43:56;100730.03;;;19.29;53.85
73242;BME280;65659;49.234;-2.094;2023-07-13T05:46:21;100733.62;;;19.04;53.84
73242;BME280;65659;49.234;-2.094;2023-07-13T05:48:47;100729.67;;;19.13;53.61
73242;BME280;65659;49.234;-2.094;2023-07-13T05:51:18;100732.51;;;19.16;53.62
73242;BME280;65659;49.234;-2.094;2023-07-13T05:53:39;100737.49;;;19.11;53.70
73242;BME280;65659;49.234;-2.094;2023-07-13T05:56:05;100738.28;;;19.41;53.39
73242;BME280;65659;49.234;-2.094;2023-07-13T05:58:35;100738.34;;;19.17;53.33
73242;BME280;65659;49.234;-2.094;2023-07-13T06:01:01;100739.56;;;19.19;53.30
73242;BME280;65659;49.234;-2.094;2023-07-13T06:03:22;100740.36;;;19.24;53.27
73242;BME280;65659;49.234;-2.094;2023-07-13T06:05:48;100738.73;;;19.38;53.03
73242;BME280;65659;49.234;-2.094;2023-07-13T06:08:13;100740.35;;;19.40;52.84
73242;BME280;65659;49.234;-2.094;2023-07-13T06:10:39;100747.69;;;19.38;52.57
73242;BME280;65659;49.234;-2.094;2023-07-13T06:13:04;100751.95;;;19.48;52.03
73242;BME280;65659;49.234;-2.094;2023-07-13T06:15:30;100756.49;;;19.40;51.90
73242;BME280;65659;49.234;-2.094;2023-07-13T06:17:56;100759.66;;;19.41;51.92
73242;BME280;65659;49.234;-2.094;2023-07-13T06:20:21;100762.68;;;19.50;51.78
73242;BME280;65659;49.234;-2.094;2023-07-13T06:22:47;100769.86;;;19.28;51.43
73242;BME280;65659;49.234;-2.094;2023-07-13T06:25:13;100762.05;;;19.33;50.95
73242;BME280;65659;49.234;-2.094;2023-07-13T06:27:39;100765.79;;;19.55;50.49
73242;BME280;65659;49.234;-2.094;2023-07-13T06:30:05;100768.14;;;19.43;50.01
73242;BME280;65659;49.234;-2.094;2023-07-13T06:32:30;100765.79;;;19.60;49.48
73242;BME280;65659;49.234;-2.094;2023-07-13T06:34:55;100768.57;;;19.55;49.41
73242;BME280;65659;49.234;-2.094;2023-07-13T06:37:21;100768.72;;;19.71;49.22
73242;BME280;65659;49.234;-2.094;2023-07-13T06:39:46;100768.70;;;19.82;49.23
73242;BME280;65659;49.234;-2.094;2023-07-13T06:42:12;100772.83;;;19.67;49.12
73242;BME280;65659;49.234;-2.094;2023-07-13T06:44:38;100773.74;;;19.83;48.82
73242;BME280;65659;49.234;-2.094;2023-07-13T06:47:04;100774.74;;;19.83;48.98
73242;BME280;65659;49.234;-2.094;2023-07-13T06:49:29;100781.53;;;20.17;48.87
73242;BME280;65659;49.234;-2.094;2023-07-13T06:51:55;100783.05;;;20.14;49.12
73242;BME280;65659;49.234;-2.094;2023-07-13T06:54:21;100778.96;;;20.15;49.26
73242;BME280;65659;49.234;-2.094;2023-07-13T06:56:46;100784.66;;;20.12;49.39
73242;BME280;65659;49.234;-2.094;2023-07-13T06:59:13;100785.37;;;19.37;49.61
73242;BME280;65659;49.234;-2.094;2023-07-13T07:01:39;100793.88;;;19.62;48.94
73242;BME280;65659;49.234;-2.094;2023-07-13T07:04:05;100797.99;;;20.06;48.35
73242;BME280;65659;49.234;-2.094;2023-07-13T07:06:30;100792.79;;;20.11;48.15
73242;BME280;65659;49.234;-2.094;2023-07-13T07:08:55;100794.51;;;19.96;47.99
73242;BME280;65659;49.234;-2.094;2023-07-13T07:11:24;100803.39;;;20.31;47.75
73242;BME280;65659;49.234;-2.094;2023-07-13T07:13:48;100799.81;;;20.36;47.80
73242;BME280;65659;49.234;-2.094;2023-07-13T07:16:13;100799.12;;;20.30;47.56
73242;BME280;65659;49.234;-2.094;2023-07-13T07:18:44;100808.65;;;20.08;47.27
73242;BME280;65659;49.234;-2.094;2023-07-13T07:21:05;100808.27;;;20.27;47.00
73242;BME280;65659;49.234;-2.094;2023-07-13T07:23:30;100799.95;;;20.33;46.71
73242;BME280;65659;49.234;-2.094;2023-07-13T07:25:57;100799.33;;;20.29;46.54
73242;BME280;65659;49.234;-2.094;2023-07-13T07:28:23;100799.27;;;20.58;46.01
73242;BME280;65659;49.234;-2.094;2023-07-13T07:30:48;100801.32;;;20.35;45.45
73242;BME280;65659;49.234;-2.094;2023-07-13T07:33:15;100809.19;;;20.84;44.44
73242;BME280;65659;49.234;-2.094;2023-07-13T07:35:41;100806.04;;;20.74;44.00
73242;BME280;65659;49.234;-2.094;2023-07-13T07:38:05;100807.55;;;21.19;44.05
73242;BME280;65659;49.234;-2.094;2023-07-13T07:40:45;100808.66;;;20.79;43.90
73242;BME280;65659;49.234;-2.094;2023-07-13T07:45:26;100805.33;;;21.37;42.99
73242;BME280;65659;49.234;-2.094;2023-07-13T07:47:54;100810.89;;;21.13;42.30
73242;BME280;65659;49.234;-2.094;2023-07-13T07:50:17;100814.90;;;21.50;41.55
73242;BME280;65659;49.234;-2.094;2023-07-13T07:52:41;100820.87;;;21.34;41.76
73242;BME280;65659;49.234;-2.094;2023-07-13T07:55:09;100818.29;;;21.35;41.96
73242;BME280;65659;49.234;-2.094;2023-07-13T07:57:30;100823.93;;;21.16;41.84
73242;BME280;65659;49.234;-2.094;2023-07-13T07:59:57;100824.40;;;21.52;41.65
73242;BME280;65659;49.234;-2.094;2023-07-13T08:04:59;100819.29;;;21.08;42.03
73242;BME280;65659;49.234;-2.094;2023-07-13T08:07:11;100821.03;;;20.87;42.15
73242;BME280;65659;49.234;-2.094;2023-07-13T08:09:46;100819.03;;;21.17;42.04
73242;BME280;65659;49.234;-2.094;2023-07-13T08:12:10;100820.85;;;21.66;41.92
73242;BME280;65659;49.234;-2.094;2023-07-13T08:14:40;100824.91;;;21.13;41.97
73242;BME280;65659;49.234;-2.094;2023-07-13T08:16:58;100831.60;;;21.51;41.69
73242;BME280;65659;49.234;-2.094;2023-07-13T08:19:22;100825.92;;;21.45;41.88
73242;BME280;65659;49.234;-2.094;2023-07-13T08:21:45;100828.22;;;21.24;41.90
73242;BME280;65659;49.234;-2.094;2023-07-13T08:24:10;100825.55;;;21.30;41.97
73242;BME280;65659;49.234;-2.094;2023-07-13T08:26:36;100829.34;;;21.40;41.66
73242;BME280;65659;49.234;-2.094;2023-07-13T08:29:03;100831.88;;;21.44;41.42
73242;BME280;65659;49.234;-2.094;2023-07-13T08:31:28;100829.26;;;21.39;41.18
73242;BME280;65659;49.234;-2.094;2023-07-13T08:33:53;100830.80;;;21.61;41.06
73242;BME280;65659;49.234;-2.094;2023-07-13T08:36:19;100828.66;;;21.11;41.48
73242;BME280;65659;49.234;-2.094;2023-07-13T08:38:44;100829.44;;;21.21;41.52
73242;BME280;65659;49.234;-2.094;2023-07-13T08:41:15;100824.90;;;21.09;41.69
73242;BME280;65659;49.234;-2.094;2023-07-13T08:43:38;100828.13;;;20.76;42.80
73242;BME280;65659;49.234;-2.094;2023-07-13T08:46:04;100824.53;;;20.65;43.53
73242;BME280;65659;49.234;-2.094;2023-07-13T08:48:30;100827.68;;;20.59;43.86
73242;BME280;65659;49.234;-2.094;2023-07-13T08:50:57;100832.95;;;20.23;44.35
73242;BME280;65659;49.234;-2.094;2023-07-13T08:53:19;100829.44;;;20.31;44.52
73242;BME280;65659;49.234;-2.094;2023-07-13T08:55:44;100832.34;;;20.39;44.33
73242;BME280;65659;49.234;-2.094;2023-07-13T08:58:13;100825.12;;;20.28;44.36
73242;BME280;65659;49.234;-2.094;2023-07-13T09:00:42;100833.48;;;20.43;43.95
73242;BME280;65659;49.234;-2.094;2023-07-13T09:03:01;100828.87;;;20.65;44.04
73242;BME280;65659;49.234;-2.094;2023-07-13T09:05:31;100826.84;;;20.78;43.86
73242;BME280;65659;49.234;-2.094;2023-07-13T09:08:04;100824.39;;;21.29;43.30
73242;BME280;65659;49.234;-2.094;2023-07-13T09:10:20;100827.59;;;21.07;42.67
73242;BME280;65659;49.234;-2.094;2023-07-13T09:12:53;100821.55;;;21.10;42.56
73242;BME280;65659;49.234;-2.094;2023-07-13T09:15:19;100830.55;;;21.06;42.42
73242;BME280;65659;49.234;-2.094;2023-07-13T09:17:39;100829.27;;;21.15;42.44
73242;BME280;65659;49.234;-2.094;2023-07-13T09:20:02;100830.15;;;21.31;41.88
73242;BME280;65659;49.234;-2.094;2023-07-13T09:22:25;100831.96;;;21.50;42.04
73242;BME280;65659;49.234;-2.094;2023-07-13T09:24:57;100826.13;;;21.42;42.03
73242;BME280;65659;49.234;-2.094;2023-07-13T09:27:19;100823.19;;;21.62;41.58
73242;BME280;65659;49.234;-2.094;2023-07-13T09:29:46;100835.11;;;21.68;40.69
73242;BME280;65659;49.234;-2.094;2023-07-13T09:32:09;100824.78;;;21.73;40.65
73242;BME280;65659;49.234;-2.094;2023-07-13T09:37:06;100829.84;;;22.05;40.38
73242;BME280;65659;49.234;-2.094;2023-07-13T09:39:27;100832.19;;;21.80;40.50
73242;BME280;65659;49.234;-2.094;2023-07-13T09:41:55;100844.20;;;21.57;40.27
73242;BME280;65659;49.234;-2.094;2023-07-13T09:44:34;100845.68;;;21.64;39.48
73242;BME280;65659;49.234;-2.094;2023-07-13T09:46:51;100846.86;;;22.40;39.70
73242;BME280;65659;49.234;-2.094;2023-07-13T09:49:08;100854.68;;;21.59;40.42
73242;BME280;65659;49.234;-2.094;2023-07-13T09:51:32;100859.54;;;22.04;40.35
73242;BME280;65659;49.234;-2.094;2023-07-13T09:54:02;100859.83;;;21.84;40.37
73242;BME280;65659;49.234;-2.094;2023-07-13T09:56:29;100861.60;;;21.48;39.81
73242;BME280;65659;49.234;-2.094;2023-07-13T09:58:53;100859.34;;;21.56;39.32
73242;BME280;65659;49.234;-2.094;2023-07-13T10:03:55;100855.95;;;21.96;37.80
73242;BME280;65659;49.234;-2.094;2023-07-13T10:06:21;100857.26;;;22.22;37.84
73242;BME280;65659;49.234;-2.094;2023-07-13T10:08:41;100859.03;;;22.17;37.18
73242;BME280;65659;49.234;-2.094;2023-07-13T10:11:17;100855.65;;;22.29;36.70
73242;BME280;65659;49.234;-2.094;2023-07-13T10:13:48;100861.64;;;22.39;36.67
73242;BME280;65659;49.234;-2.094;2023-07-13T10:16:07;100872.01;;;22.49;36.70
73242;BME280;65659;49.234;-2.094;2023-07-13T10:21:14;100875.30;;;22.54;37.10
73242;BME280;65659;49.234;-2.094;2023-07-13T10:23:20;100869.02;;;22.21;37.47
73242;BME280;65659;49.234;-2.094;2023-07-13T10:25:56;100878.70;;;22.41;37.40
73242;BME280;65659;49.234;-2.094;2023-07-13T10:28:01;100885.98;;;22.33;37.53
73242;BME280;65659;49.234;-2.094;2023-07-13T10:30:24;100880.35;;;22.49;37.28
73242;BME280;65659;49.234;-2.094;2023-07-13T10:32:48;100876.95;;;22.55;37.25
73242;BME280;65659;49.234;-2.094;2023-07-13T10:35:15;100881.05;;;22.47;37.41
73242;BME280;65659;49.234;-2.094;2023-07-13T10:37:44;100890.30;;;22.76;37.59
73242;BME280;65659;49.234;-2.094;2023-07-13T10:40:06;100889.74;;;22.76;36.86
73242;BME280;65659;49.234;-2.094;2023-07-13T10:42:35;100897.49;;;22.91;36.68
73242;BME280;65659;49.234;-2.094;2023-07-13T10:44:55;100888.45;;;23.05;36.54
73242;BME280;65659;49.234;-2.094;2023-07-13T10:47:21;100893.26;;;22.74;36.50
73242;BME280;65659;49.234;-2.094;2023-07-13T10:49:49;100892.63;;;22.72;36.72
73242;BME280;65659;49.234;-2.094;2023-07-13T10:54:39;100897.94;;;22.90;36.86
73242;BME280;65659;49.234;-2.094;2023-07-13T10:57:17;100895.07;;;22.76;36.58
73242;BME280;65659;49.234;-2.094;2023-07-13T10:59:29;100888.85;;;22.50;36.54
73242;BME280;65659;49.234;-2.094;2023-07-13T11:01:57;100893.08;;;22.31;36.55
73242;BME280;65659;49.234;-2.094;2023-07-13T11:04:21;100881.74;;;22.59;36.15
73242;BME280;65659;49.234;-2.094;2023-07-13T11:06:50;100895.74;;;22.69;36.44
73242;BME280;65659;49.234;-2.094;2023-07-13T11:11:39;100889.30;;;22.93;35.67
73242;BME280;65659;49.234;-2.094;2023-07-13T11:14:05;100886.00;;;22.75;36.01
73242;BME280;65659;49.234;-2.094;2023-07-13T11:16:42;100897.00;;;22.75;35.39
73242;BME280;65659;49.234;-2.094;2023-07-13T11:24:03;100880.13;;;22.61;35.47
73242;BME280;65659;49.234;-2.094;2023-07-13T11:26:50;100894.77;;;22.73;35.82
73242;BME280;65659;49.234;-2.094;2023-07-13T11:28:56;100894.78;;;23.06;35.99
73242;BME280;65659;49.234;-2.094;2023-07-13T11:36:02;100890.84;;;22.79;35.95
73242;BME280;65659;49.234;-2.094;2023-07-13T11:38:24;100877.17;;;22.85;35.56
73242;BME280;65659;49.234;-2.094;2023-07-13T11:41:19;100879.85;;;23.04;35.08
73242;BME280;65659;49.234;-2.094;2023-07-13T11:43:15;100879.24;;;22.60;35.58
73242;BME280;65659;49.234;-2.094;2023-07-13T11:45:43;100890.43;;;23.46;34.87
73242;BME280;65659;49.234;-2.094;2023-07-13T11:48:03;100887.66;;;23.32;34.30
73242;BME280;65659;49.234;-2.094;2023-07-13T11:50:31;100883.83;;;23.38;34.14
73242;BME280;65659;49.234;-2.094;2023-07-13T11:52:57;100889.30;;;23.67;34.02
73242;BME280;65659;49.234;-2.094;2023-07-13T11:55:22;100885.77;;;23.53;33.85
73242;BME280;65659;49.234;-2.094;2023-07-13T11:57:50;100893.50;;;23.74;34.23
73242;BME280;65659;49.234;-2.094;2023-07-13T12:00:22;100883.49;;;23.86;33.80
73242;BME280;65659;49.234;-2.094;2023-07-13T12:02:43;100891.22;;;23.63;33.69
73242;BME280;65659;49.234;-2.094;2023-07-13T12:05:17;100887.38;;;24.30;33.79
73242;BME280;65659;49.234;-2.094;2023-07-13T12:07:30;100877.42;;;23.94;33.80
73242;BME280;65659;49.234;-2.094;2023-07-13T12:10:03;100880.09;;;23.61;33.69
73242;BME280;65659;49.234;-2.094;2023-07-13T12:12:28;100868.25;;;23.63;34.11
73242;BME280;65659;49.234;-2.094;2023-07-13T12:14:50;100882.95;;;23.80;34.17
73242;BME280;65659;49.234;-2.094;2023-07-13T12:17:16;100866.96;;;24.11;34.16
73242;BME280;65659;49.234;-2.094;2023-07-13T12:19:36;100884.01;;;23.95;34.03
73242;BME280;65659;49.234;-2.094;2023-07-13T12:22:02;100887.93;;;23.36;33.83
73242;BME280;65659;49.234;-2.094;2023-07-13T12:29:28;100874.95;;;23.72;33.88
73242;BME280;65659;49.234;-2.094;2023-07-13T12:34:23;100862.45;;;24.50;33.53
73242;BME280;65659;49.234;-2.094;2023-07-13T12:36:38;100854.04;;;25.34;32.70
73242;BME280;65659;49.234;-2.094;2023-07-13T12:39:22;100853.75;;;25.39;31.69
73242;BME280;65659;49.234;-2.094;2023-07-13T12:41:32;100858.84;;;25.28;31.58
73242;BME280;65659;49.234;-2.094;2023-07-13T12:43:54;100860.58;;;25.80;31.10
73242;BME280;65659;49.234;-2.094;2023-07-13T12:46:23;100867.56;;;25.99;31.09
73242;BME280;65659;49.234;-2.094;2023-07-13T12:48:47;100870.14;;;26.02;30.70
73242;BME280;65659;49.234;-2.094;2023-07-13T12:51:13;100868.15;;;26.05;30.51
73242;BME280;65659;49.234;-2.094;2023-07-13T12:53:43;100876.81;;;25.54;30.64
73242;BME280;65659;49.234;-2.094;2023-07-13T12:56:11;100870.92;;;24.96;31.00
73242;BME280;65659;49.234;-2.094;2023-07-13T13:01:11;100859.91;;;24.84;31.62
73242;BME280;65659;49.234;-2.094;2023-07-13T13:03:27;100860.35;;;25.09;31.52
73242;BME280;65659;49.234;-2.094;2023-07-13T13:05:48;100862.68;;;25.44;31.43
73242;BME280;65659;49.234;-2.094;2023-07-13T13:08:13;100857.92;;;25.56;30.70
73242;BME280;65659;49.234;-2.094;2023-07-13T13:10:36;100865.92;;;25.45;31.39